createdAt,value
2019-03-08T00:00:34.182Z,3.35
2019-03-08T00:03:03.091Z,2.90
2019-03-08T00:05:31.920Z,6.90
2019-03-08T00:08:00.741Z,6.17
2019-03-08T00:10:29.607Z,2.67
2019-03-08T00:12:58.417Z,3.05
2019-03-08T00:15:27.241Z,4.85
2019-03-08T00:17:56.199Z,1.92
2019-03-08T00:20:25.048Z,2.00
2019-03-08T00:22:53.870Z,1.80
2019-03-08T00:25:22.683Z,5.00
2019-03-08T00:27:51.420Z,2.27
2019-03-08T00:30:20.245Z,4.12
2019-03-08T00:32:49.075Z,3.77
2019-03-08T00:35:17.933Z,2.45
2019-03-08T00:37:46.792Z,2.25
2019-03-08T00:40:15.685Z,3.67
2019-03-08T00:42:44.493Z,3.27
2019-03-08T00:45:14.955Z,2.12
2019-03-08T00:47:43.789Z,2.60
2019-03-08T00:50:13.036Z,2.12
2019-03-08T00:52:41.867Z,3.98
2019-03-08T00:55:14.403Z,2.67
2019-03-08T00:57:43.239Z,1.32
2019-03-08T01:00:17.695Z,2.67
2019-03-08T01:02:46.533Z,3.58
2019-03-08T01:05:16.887Z,3.75
2019-03-08T01:07:45.991Z,3.70
2019-03-08T01:10:21.093Z,2.52
2019-03-08T01:12:49.945Z,2.45
2019-03-08T01:15:18.908Z,1.70
2019-03-08T01:17:47.778Z,4.15
2019-03-08T01:20:18.015Z,1.80
2019-03-08T01:22:47.012Z,2.20
2019-03-08T01:25:16.295Z,2.00
2019-03-08T01:27:59.653Z,3.08
2019-03-08T01:30:32.250Z,4.17
2019-03-08T01:33:01.069Z,4.58
2019-03-08T01:35:29.891Z,2.72
2019-03-08T01:37:58.740Z,5.67
2019-03-08T01:40:27.708Z,3.95
2019-03-08T01:42:56.543Z,4.22
2019-03-08T01:45:25.350Z,4.08
2019-03-08T01:47:54.192Z,5.22
2019-03-08T01:50:23.084Z,2.80
2019-03-08T01:52:51.918Z,1.72
2019-03-08T01:55:20.867Z,2.45
2019-03-08T01:57:49.715Z,1.52
2019-03-08T02:00:20.727Z,3.08
2019-03-08T02:02:49.645Z,3.47
2019-03-08T02:05:18.864Z,2.98
2019-03-08T02:07:47.618Z,3.55
2019-03-08T02:10:16.970Z,6.30
2019-03-08T02:12:45.775Z,1.55
2019-03-08T02:15:16.862Z,3.40
2019-03-08T02:17:45.715Z,5.40
2019-03-08T02:20:19.668Z,3.00
2019-03-08T02:22:48.556Z,2.30
2019-03-08T02:25:17.397Z,2.10
2019-03-08T02:27:46.220Z,2.27
2019-03-08T02:30:16.830Z,1.80
2019-03-08T02:32:45.886Z,7.62
2019-03-08T02:35:17.933Z,4.35
2019-03-08T02:37:46.818Z,1.95
2019-03-08T02:40:34.973Z,2.72
2019-03-08T02:43:05.843Z,3.60
2019-03-08T02:45:34.667Z,5.00
2019-03-08T02:48:03.531Z,1.37
2019-03-08T02:50:32.464Z,3.33
2019-03-08T02:53:01.288Z,3.35
2019-03-08T02:55:30.077Z,2.70
2019-03-08T02:57:58.912Z,1.27
2019-03-08T03:00:30.862Z,2.40
2019-03-08T03:02:59.636Z,2.80
2019-03-08T03:05:31.298Z,5.65
2019-03-08T03:08:00.160Z,1.92
2019-03-08T03:10:29.272Z,3.37
2019-03-08T03:12:58.096Z,3.72
2019-03-08T03:15:26.957Z,2.22
2019-03-08T03:17:55.752Z,2.90
2019-03-08T03:20:24.524Z,3.37
2019-03-08T03:22:53.544Z,4.65
2019-03-08T03:25:22.314Z,8.00
2019-03-08T03:27:51.204Z,2.08
2019-03-08T03:30:20.930Z,4.22
2019-03-08T03:32:49.737Z,1.50
2019-03-08T03:35:18.569Z,4.03
2019-03-08T03:37:47.719Z,4.28
2019-03-08T03:40:17.580Z,2.40
2019-03-08T03:42:46.537Z,5.42
2019-03-08T03:45:18.035Z,2.33
2019-03-08T03:47:46.839Z,6.47
2019-03-08T03:50:16.000Z,4.22
2019-03-08T03:52:44.826Z,2.90
2019-03-08T03:55:17.501Z,3.90
2019-03-08T03:57:46.309Z,2.80
2019-03-08T04:00:22.877Z,3.05
2019-03-08T04:02:51.757Z,3.15
2019-03-08T04:05:20.560Z,4.83
2019-03-08T04:07:49.396Z,2.30
2019-03-08T04:10:18.410Z,2.60
2019-03-08T04:12:47.234Z,3.15
2019-03-08T04:15:18.278Z,1.62
2019-03-08T04:17:47.394Z,2.50
2019-03-08T04:20:17.385Z,1.60
2019-03-08T04:22:46.230Z,4.83
2019-03-08T04:25:15.332Z,2.00
2019-03-08T04:27:44.214Z,2.10
2019-03-08T04:30:17.815Z,2.35
2019-03-08T04:32:46.656Z,3.87
2019-03-08T04:35:15.548Z,3.37
2019-03-08T04:37:44.468Z,3.27
2019-03-08T04:40:14.398Z,1.45
2019-03-08T04:42:43.272Z,1.75
2019-03-08T04:45:13.408Z,2.55
2019-03-08T04:47:42.265Z,5.22
2019-03-08T04:50:13.133Z,2.60
2019-03-08T04:52:41.885Z,1.42
2019-03-08T04:55:16.910Z,3.67
2019-03-08T04:57:46.666Z,1.98
2019-03-08T05:00:16.838Z,4.00
2019-03-08T05:02:45.673Z,1.77
2019-03-08T05:05:14.429Z,2.95
2019-03-08T05:07:43.258Z,1.95
2019-03-08T05:10:14.623Z,4.17
2019-03-08T05:12:43.574Z,2.10
2019-03-08T05:15:13.108Z,2.60
2019-03-08T05:17:41.910Z,2.55
2019-03-08T05:20:11.167Z,1.77
2019-03-08T05:22:39.953Z,1.60
2019-03-08T05:25:15.910Z,2.17
2019-03-08T05:27:44.699Z,2.80
2019-03-08T05:30:17.258Z,3.40
2019-03-08T05:32:46.090Z,1.45
2019-03-08T05:35:15.500Z,2.12
2019-03-08T05:37:44.372Z,6.50
2019-03-08T05:40:14.925Z,2.92
2019-03-08T05:42:43.957Z,3.83
2019-03-08T05:45:14.062Z,12.37
2019-03-08T05:47:42.966Z,2.45
2019-03-08T05:50:12.411Z,1.00
2019-03-08T05:52:41.555Z,4.12
2019-03-08T05:55:11.194Z,5.40
2019-03-08T05:57:40.108Z,3.20
2019-03-08T06:00:15.914Z,2.15
2019-03-08T06:02:44.830Z,4.05
2019-03-08T06:05:13.664Z,2.45
2019-03-08T06:07:42.485Z,2.77
2019-03-08T06:10:33.470Z,3.98
2019-03-08T06:13:06.441Z,3.60
2019-03-08T06:15:35.282Z,7.22
2019-03-08T06:18:04.286Z,2.35
2019-03-08T06:20:33.044Z,1.20
2019-03-08T06:23:01.900Z,2.60
2019-03-08T06:25:30.722Z,3.17
2019-03-08T06:27:59.523Z,2.50
2019-03-08T06:30:28.553Z,2.25
2019-03-08T06:32:57.398Z,6.62
2019-03-08T06:35:26.241Z,5.20
2019-03-08T06:37:55.086Z,2.08
2019-03-08T06:40:23.915Z,2.77
2019-03-08T06:42:52.639Z,5.30
2019-03-08T06:45:21.403Z,1.85
2019-03-08T06:47:50.160Z,8.98
2019-03-08T06:50:18.953Z,2.60
2019-03-08T06:52:47.774Z,3.85
2019-03-08T06:55:17.611Z,2.15
2019-03-08T06:57:46.461Z,3.62
2019-03-08T07:00:21.088Z,2.33
2019-03-08T07:02:49.879Z,1.70
2019-03-08T07:05:18.753Z,3.83
2019-03-08T07:07:47.592Z,3.65
2019-03-08T07:10:16.421Z,3.45
2019-03-08T07:12:45.481Z,2.67
2019-03-08T07:15:14.466Z,2.72
2019-03-08T07:17:43.240Z,6.72
2019-03-08T07:20:16.380Z,3.17
2019-03-08T07:22:46.811Z,3.67
2019-03-08T07:25:20.044Z,3.65
2019-03-08T07:27:50.519Z,1.75
2019-03-08T07:30:29.912Z,1.80
2019-03-08T07:33:03.293Z,8.20
2019-03-08T07:35:36.466Z,2.85
2019-03-08T07:38:06.946Z,5.12
2019-03-08T07:40:37.465Z,2.72
2019-03-08T07:43:13.930Z,1.22
2019-03-08T07:45:50.377Z,2.35
2019-03-08T07:48:20.820Z,1.87
2019-03-08T07:50:54.006Z,3.10
2019-03-08T07:53:27.533Z,3.87
2019-03-08T07:56:00.653Z,2.90
2019-03-08T07:58:31.148Z,3.27
2019-03-08T08:01:08.393Z,3.20
2019-03-08T08:03:45.089Z,3.50
2019-03-08T08:06:21.294Z,3.15
2019-03-08T08:09:00.907Z,2.42
2019-03-08T08:11:46.864Z,4.55
2019-03-08T08:14:20.030Z,2.83
2019-03-08T08:17:01.930Z,2.72
2019-03-08T08:19:48.421Z,2.20
2019-03-08T08:22:18.856Z,5.25
2019-03-08T08:24:49.342Z,2.55
2019-03-08T08:27:31.482Z,3.37
2019-03-08T08:30:01.948Z,1.70
2019-03-08T08:32:50.289Z,2.83
2019-03-08T08:35:26.313Z,3.27
2019-03-08T08:37:59.731Z,2.98
2019-03-08T08:40:46.278Z,3.45
2019-03-08T08:43:25.655Z,2.35
2019-03-08T08:46:17.969Z,2.50
2019-03-08T08:48:48.403Z,2.85
2019-03-08T08:51:21.683Z,4.75
2019-03-08T08:53:58.160Z,2.75
2019-03-08T08:56:28.673Z,4.05
2019-03-08T08:59:01.996Z,7.40
2019-03-08T09:01:38.492Z,5.92
2019-03-08T09:04:24.982Z,3.95
2019-03-08T09:06:58.319Z,5.12
2019-03-08T09:09:28.802Z,3.55
2019-03-08T09:11:59.482Z,5.35
2019-03-08T09:14:29.861Z,4.15
2019-03-08T09:17:00.553Z,5.58
2019-03-08T09:19:46.080Z,2.70
2019-03-08T09:22:19.473Z,2.85
2019-03-08T09:24:52.904Z,4.00
2019-03-08T09:27:26.293Z,4.10
2019-03-08T09:30:14.886Z,3.42
2019-03-08T09:33:01.310Z,6.75
2019-03-08T09:35:37.762Z,5.33
2019-03-08T09:38:08.537Z,4.28
2019-03-08T09:40:47.773Z,3.83
2019-03-08T09:43:18.191Z,3.55
2019-03-08T09:46:04.685Z,5.17
2019-03-08T09:48:48.771Z,3.90
2019-03-08T09:51:21.931Z,4.70
2019-03-08T09:54:04.176Z,3.33
2019-03-08T09:56:49.776Z,5.15
2019-03-08T09:59:32.025Z,5.85
2019-03-08T10:02:05.405Z,8.15
2019-03-08T10:04:35.813Z,3.95
2019-03-08T10:07:09.234Z,3.87
2019-03-08T10:09:39.635Z,4.55
2019-03-08T10:12:13.232Z,6.12
2019-03-08T10:14:46.469Z,4.85
2019-03-08T10:17:16.872Z,6.00
2019-03-08T10:19:50.403Z,4.83
2019-03-08T10:22:23.565Z,6.22
2019-03-08T10:25:09.789Z,3.15
2019-03-08T10:27:40.249Z,3.85
2019-03-08T10:30:18.352Z,5.17
2019-03-08T10:32:48.737Z,3.83
2019-03-08T10:35:23.788Z,6.00
2019-03-08T10:37:51.486Z,4.05
2019-03-08T10:40:36.633Z,10.35
2019-03-08T10:43:10.296Z,4.62
2019-03-08T10:45:52.473Z,5.03
2019-03-08T10:48:25.815Z,2.98
2019-03-08T10:51:05.349Z,3.27
2019-03-08T10:53:45.102Z,2.40
2019-03-08T10:56:18.278Z,3.05
2019-03-08T10:59:04.867Z,1.75
2019-03-08T11:01:38.434Z,3.40
2019-03-08T11:04:08.920Z,4.33
2019-03-08T11:06:39.390Z,1.75
2019-03-08T11:09:12.935Z,2.37
2019-03-08T11:11:43.399Z,2.62
2019-03-08T11:14:29.933Z,4.80
2019-03-08T11:17:12.554Z,3.50
2019-03-08T11:19:59.644Z,6.45
2019-03-08T11:22:30.491Z,5.35
2019-03-08T11:25:07.797Z,6.87
2019-03-08T11:27:44.897Z,3.75
2019-03-08T11:30:18.749Z,4.03
2019-03-08T11:32:52.509Z,4.10
2019-03-08T11:35:23.039Z,2.77
2019-03-08T11:37:53.711Z,3.90
2019-03-08T11:40:27.355Z,7.45
2019-03-08T11:43:06.929Z,3.75
2019-03-08T11:45:37.450Z,3.87
2019-03-08T11:48:08.367Z,6.90
2019-03-08T11:50:51.286Z,5.33
2019-03-08T11:53:39.835Z,3.08
2019-03-08T11:56:10.327Z,7.50
2019-03-08T11:58:41.453Z,7.20
2019-03-08T12:01:21.089Z,7.80
2019-03-08T12:04:07.716Z,6.85
2019-03-08T12:06:44.437Z,9.95
2019-03-08T12:09:15.199Z,4.80
2019-03-08T12:11:46.148Z,5.58
2019-03-08T12:14:23.165Z,5.85
2019-03-08T12:17:03.081Z,4.37
2019-03-08T12:19:51.698Z,6.85
2019-03-08T12:22:37.125Z,8.15
2019-03-08T12:25:08.983Z,6.15
2019-03-08T12:27:39.243Z,8.60
2019-03-08T12:30:28.579Z,7.80
2019-03-08T12:33:14.756Z,9.10
2019-03-08T12:35:50.700Z,6.20
2019-03-08T12:38:20.860Z,8.37
2019-03-08T12:41:03.201Z,7.30
2019-03-08T12:43:50.071Z,18.43
2019-03-08T12:46:22.996Z,6.80
2019-03-08T12:48:56.074Z,5.43
2019-03-08T12:51:31.688Z,10.70
2019-03-08T12:54:19.733Z,9.30
2019-03-08T12:56:53.294Z,11.15
2019-03-08T12:59:39.726Z,8.90
2019-03-08T13:02:15.889Z,11.73
2019-03-08T13:05:02.531Z,10.55
2019-03-08T13:07:44.887Z,12.35
2019-03-08T13:10:13.689Z,17.65
2019-03-08T13:12:42.806Z,11.35
2019-03-08T13:15:14.383Z,11.40
2019-03-08T13:17:43.162Z,8.30
2019-03-08T13:20:17.656Z,15.50
2019-03-08T13:22:46.494Z,7.00
2019-03-08T13:25:15.413Z,11.12
2019-03-08T13:27:44.164Z,11.43
2019-03-08T13:30:16.382Z,7.92
2019-03-08T13:32:45.119Z,12.75
2019-03-08T13:35:14.338Z,10.25
2019-03-08T13:37:43.075Z,21.68
2019-03-08T13:40:14.372Z,9.43
2019-03-08T13:42:43.211Z,11.10
2019-03-08T13:45:14.870Z,13.03
2019-03-08T13:47:43.813Z,8.70
2019-03-08T13:50:14.786Z,8.70
2019-03-08T13:52:43.665Z,10.50
2019-03-08T13:55:15.091Z,13.10
2019-03-08T13:57:43.657Z,7.60
2019-03-08T14:00:16.568Z,5.03
2019-03-08T14:02:45.066Z,8.47
2019-03-08T14:05:13.872Z,6.40
2019-03-08T14:07:42.627Z,8.13
2019-03-08T14:10:20.034Z,13.50
2019-03-08T14:12:48.601Z,4.57
2019-03-08T14:15:18.766Z,8.00
2019-03-08T14:17:47.263Z,4.53
2019-03-08T14:20:18.873Z,7.47
2019-03-08T14:22:47.394Z,7.87
2019-03-08T14:25:15.977Z,4.80
2019-03-08T14:27:44.730Z,9.20
2019-03-08T14:30:19.787Z,6.72
2019-03-08T14:32:48.941Z,5.90
2019-03-08T14:35:17.643Z,7.83
2019-03-08T14:37:46.528Z,10.58
2019-03-08T14:40:20.751Z,8.18
2019-03-08T14:43:02.993Z,6.45
2019-03-08T14:45:33.407Z,5.20
2019-03-08T14:48:02.277Z,5.20
2019-03-08T14:50:31.852Z,8.20
2019-03-08T14:53:01.293Z,9.43
2019-03-08T14:55:30.045Z,9.80
2019-03-08T14:57:58.913Z,9.87
2019-03-08T15:00:29.354Z,5.10
2019-03-08T15:02:58.804Z,7.63
2019-03-08T15:05:27.348Z,10.87
2019-03-08T15:07:55.982Z,11.23
2019-03-08T15:10:24.517Z,10.80
2019-03-08T15:12:53.213Z,9.70
2019-03-08T15:15:21.961Z,6.93
2019-03-08T15:17:53.786Z,10.87
2019-03-08T15:20:20.998Z,9.60
2019-03-08T15:22:50.043Z,4.63
2019-03-08T15:25:18.775Z,8.70
2019-03-08T15:27:47.351Z,10.07
2019-03-08T15:30:19.292Z,7.77
2019-03-08T15:32:47.822Z,6.83
2019-03-08T15:35:17.390Z,9.13
2019-03-08T15:37:46.015Z,8.40
2019-03-08T15:40:21.600Z,7.60
2019-03-08T15:42:50.209Z,9.90
2019-03-08T15:45:18.742Z,8.30
2019-03-08T15:47:47.937Z,11.43
2019-03-08T15:50:20.368Z,12.03
2019-03-08T15:52:49.267Z,15.70
2019-03-08T15:55:19.236Z,11.20
2019-03-08T15:57:47.705Z,11.70
2019-03-08T16:00:21.164Z,7.80
2019-03-08T16:02:50.001Z,12.90
2019-03-08T16:05:19.315Z,7.93
2019-03-08T16:07:48.135Z,8.60
2019-03-08T16:10:21.436Z,11.10
2019-03-08T16:12:50.301Z,10.18
2019-03-08T16:15:19.137Z,8.43
2019-03-08T16:17:47.985Z,9.30
2019-03-08T16:20:19.017Z,8.45
2019-03-08T16:22:47.874Z,12.82
2019-03-08T16:25:17.947Z,8.05
2019-03-08T16:27:46.728Z,7.72
2019-03-08T16:30:23.034Z,9.58
2019-03-08T16:32:59.521Z,13.70
2019-03-08T16:35:30.134Z,10.78
2019-03-08T16:38:18.098Z,11.53
2019-03-08T16:41:04.527Z,8.68
2019-03-08T16:43:37.692Z,10.15
2019-03-08T16:46:10.781Z,7.83
2019-03-08T16:48:44.196Z,9.43
2019-03-08T16:51:13.255Z,8.38
2019-03-08T16:53:43.491Z,12.25
2019-03-08T16:56:17.035Z,11.68
2019-03-08T16:58:56.514Z,14.73
2019-03-08T17:01:43.130Z,13.32
2019-03-08T17:04:22.738Z,10.65
2019-03-08T17:07:04.898Z,7.10
2019-03-08T17:09:42.726Z,11.83
2019-03-08T17:12:13.338Z,12.00
2019-03-08T17:14:43.724Z,10.90
2019-03-08T17:17:17.355Z,10.28
2019-03-08T17:19:50.868Z,12.93
2019-03-08T17:22:27.108Z,9.23
2019-03-08T17:25:03.340Z,6.65
2019-03-08T17:27:49.724Z,15.18
2019-03-08T17:30:35.204Z,13.48
2019-03-08T17:33:06.200Z,14.23
2019-03-08T17:35:36.613Z,10.08
2019-03-08T17:38:09.719Z,23.47
2019-03-08T17:40:57.996Z,11.95
2019-03-08T17:43:28.362Z,9.98
2019-03-08T17:46:01.474Z,12.68
2019-03-08T17:48:40.827Z,10.75
2019-03-08T17:51:23.247Z,11.53
2019-03-08T17:54:09.696Z,11.90
2019-03-08T17:56:43.014Z,10.55
2019-03-08T17:59:28.406Z,13.28
2019-03-08T18:02:14.033Z,17.48
2019-03-08T18:04:50.105Z,10.78
2019-03-08T18:07:32.620Z,12.00
2019-03-08T18:10:03.082Z,10.95
2019-03-08T18:12:36.129Z,12.58
2019-03-08T18:15:11.682Z,11.68
2019-03-08T18:17:48.092Z,14.53
2019-03-08T18:20:30.190Z,16.12
2019-03-08T18:23:00.795Z,15.78
2019-03-08T18:25:42.869Z,11.50
2019-03-08T18:28:19.347Z,11.88
2019-03-08T18:30:59.441Z,12.73
2019-03-08T18:33:41.866Z,30.15
2019-03-08T18:36:12.350Z,9.70
2019-03-08T18:38:58.904Z,13.30
2019-03-08T18:41:32.305Z,11.97
2019-03-08T18:44:08.561Z,15.72
2019-03-08T18:46:54.889Z,19.90
2019-03-08T18:49:27.773Z,10.75
2019-03-08T18:52:15.846Z,20.10
2019-03-08T18:54:57.993Z,11.60
2019-03-08T18:57:28.527Z,11.03
2019-03-08T19:00:18.605Z,11.05
2019-03-08T19:03:05.401Z,15.32
2019-03-08T19:05:36.081Z,14.10
2019-03-08T19:08:22.516Z,13.80
2019-03-08T19:10:58.736Z,26.10
2019-03-08T19:13:29.201Z,16.62
2019-03-08T19:15:59.843Z,16.40
2019-03-08T19:18:33.198Z,16.85
2019-03-08T19:21:08.987Z,13.10
2019-03-08T19:23:45.309Z,14.20
2019-03-08T19:26:31.786Z,22.35
2019-03-08T19:29:02.272Z,12.07
2019-03-08T19:31:35.112Z,13.28
2019-03-08T19:34:11.429Z,12.28
2019-03-08T19:36:50.381Z,10.90
2019-03-08T19:39:27.157Z,10.23
2019-03-08T19:42:03.441Z,14.53
2019-03-08T19:44:33.945Z,14.33
2019-03-08T19:47:16.370Z,12.30
2019-03-08T19:49:47.109Z,10.20
2019-03-08T19:52:26.444Z,12.23
2019-03-08T19:54:56.887Z,13.40
2019-03-08T19:57:39.390Z,13.95
2019-03-08T20:00:30.485Z,13.30
2019-03-08T20:03:12.800Z,13.38
2019-03-08T20:05:49.128Z,18.10
2019-03-08T20:08:19.525Z,12.93
2019-03-08T20:10:53.162Z,12.15
2019-03-08T20:13:32.276Z,11.48
2019-03-08T20:16:08.345Z,21.65
2019-03-08T20:18:39.146Z,13.62
2019-03-08T20:21:24.584Z,13.13
2019-03-08T20:24:04.159Z,16.50
2019-03-08T20:26:49.739Z,10.43
2019-03-08T20:29:32.434Z,11.45
2019-03-08T20:32:08.663Z,15.18
2019-03-08T20:34:45.242Z,14.40
2019-03-08T20:37:16.202Z,12.28
2019-03-08T20:39:57.623Z,19.95
2019-03-08T20:42:40.323Z,9.73
2019-03-08T20:45:20.979Z,23.35
2019-03-08T20:47:50.148Z,10.58
2019-03-08T20:50:18.960Z,15.53
2019-03-08T20:52:47.731Z,12.95
2019-03-08T20:55:16.827Z,11.40
2019-03-08T20:57:45.695Z,22.25
2019-03-08T21:00:17.836Z,16.40
2019-03-08T21:02:47.185Z,15.30
2019-03-08T21:05:16.232Z,17.57
2019-03-08T21:07:45.100Z,13.28
2019-03-08T21:10:15.508Z,14.00
2019-03-08T21:12:44.707Z,14.70
2019-03-08T21:15:14.282Z,15.65
2019-03-08T21:17:43.050Z,12.43
2019-03-08T21:20:13.459Z,10.50
2019-03-08T21:22:42.487Z,8.80
2019-03-08T21:25:13.560Z,17.42
2019-03-08T21:27:42.321Z,12.85
2019-03-08T21:30:21.252Z,12.75
2019-03-08T21:32:49.981Z,11.83
2019-03-08T21:35:18.759Z,10.80
2019-03-08T21:37:47.792Z,17.55
2019-03-08T21:40:16.683Z,13.62
2019-03-08T21:42:45.485Z,12.53
2019-03-08T21:45:15.632Z,12.98
2019-03-08T21:47:44.515Z,10.32
2019-03-08T21:50:15.341Z,10.00
2019-03-08T21:52:44.135Z,9.78
2019-03-08T21:55:13.097Z,15.95
2019-03-08T21:57:42.089Z,11.88
2019-03-08T22:00:13.645Z,12.85
2019-03-08T22:02:42.649Z,16.55
2019-03-08T22:05:11.593Z,12.25
2019-03-08T22:07:40.353Z,9.98
2019-03-08T22:10:18.833Z,10.90
2019-03-08T22:12:47.614Z,14.18
2019-03-08T22:15:16.450Z,18.02
2019-03-08T22:17:45.341Z,25.65
2019-03-08T22:20:14.181Z,15.90
2019-03-08T22:22:43.009Z,9.80
2019-03-08T22:25:11.872Z,10.45
2019-03-08T22:27:40.855Z,17.65
2019-03-08T22:30:15.155Z,11.45
2019-03-08T22:32:43.897Z,13.08
2019-03-08T22:35:12.680Z,14.58
2019-03-08T22:37:41.584Z,9.53
2019-03-08T22:40:10.769Z,8.20
2019-03-08T22:42:40.090Z,11.08
2019-03-08T22:45:10.698Z,9.28
2019-03-08T22:47:39.483Z,13.53
2019-03-08T22:50:13.761Z,11.55
2019-03-08T22:52:42.598Z,8.03
2019-03-08T22:55:13.298Z,10.80
2019-03-08T22:57:42.138Z,11.53
2019-03-08T23:00:14.025Z,8.25
2019-03-08T23:02:42.767Z,10.98
2019-03-08T23:05:11.534Z,8.33
2019-03-08T23:07:40.493Z,14.33
2019-03-08T23:10:11.070Z,10.80
2019-03-08T23:12:40.101Z,8.83
2019-03-08T23:15:09.356Z,7.22
2019-03-08T23:17:38.342Z,13.22
2019-03-08T23:20:08.835Z,8.73
2019-03-08T23:22:37.917Z,10.30
2019-03-08T23:25:07.117Z,10.10
2019-03-08T23:27:37.529Z,18.12
2019-03-08T23:30:09.978Z,12.88
2019-03-08T23:32:39.205Z,8.60
2019-03-08T23:35:08.416Z,9.13
2019-03-08T23:37:37.291Z,12.07
2019-03-08T23:40:07.776Z,16.23
2019-03-08T23:42:36.610Z,9.40
2019-03-08T23:45:07.493Z,7.80
2019-03-08T23:47:36.261Z,8.75
2019-03-08T23:50:07.681Z,11.28
2019-03-08T23:52:36.419Z,11.30
2019-03-08T23:55:08.404Z,9.70
2019-03-08T23:57:37.197Z,9.58
